CheckWX is a tool to help pilots better visualize weather data.  It is not intended as a substitute for an official pre-flight weather briefing.

19:58:37 UTC

EGUW METAR
RAF Wattisham Airport
Stowmarket, United Kingdom
Current

1 hour ago

EGUW 261850Z AUTO 25013KT 9999 FEW022/// BKN060/// 17/14 Q1009
Observed
May-26 @ 18:50 UTC
Wind
  • 250° at 13 KTS
Visibility
10,000+ meters
Flight Rules
VFR
Cloud Levels
  • Few at 2,200' AGL
  • Broken at 6,000' AGL
Temperature
17°C / 63°F
Dewpoint
14°C / 57°F
Humidity
83%
Altimeter
29.79" Hg
Pressure
1008.92 hPa
Previous

2 hours ago

EGUW 261750Z AUTO 26013KT 9999 FEW020/// 18/14 Q1009
Observed
May-26 @ 17:50 UTC
Wind
  • 260° at 13 KTS
Visibility
10,000+ meters
Flight Rules
VFR
Cloud Levels
  • Few at 2,000' AGL
Temperature
18°C / 64°F
Dewpoint
14°C / 57°F
Humidity
78%
Altimeter
29.79" Hg
Pressure
1008.92 hPa
Previous

3 hours ago

EGUW 261650Z AUTO 26013KT 9999 FEW016/// BKN050/// 18/15 Q1009 RERA
Observed
May-26 @ 16:50 UTC
Wind
  • 260° at 13 KTS
Visibility
10,000+ meters
Flight Rules
VFR
Cloud Levels
  • Few at 1,600' AGL
  • Broken at 5,000' AGL
Temperature
18°C / 64°F
Dewpoint
15°C / 59°F
Humidity
83%
Altimeter
29.79" Hg
Pressure
1008.92 hPa